createdAt,value
2018-06-24T00:00:31.949Z,15.20
2018-06-24T00:03:02.334Z,15.20
2018-06-24T00:05:32.767Z,15.20
2018-06-24T00:08:03.247Z,15.20
2018-06-24T00:10:33.675Z,15.20
2018-06-24T00:13:04.154Z,15.10
2018-06-24T00:15:34.592Z,15.20
2018-06-24T00:23:05.091Z,15.10
2018-06-24T00:25:35.470Z,15.10
2018-06-24T00:28:05.888Z,15.10
2018-06-24T00:30:36.314Z,15.10
2018-06-24T00:33:06.661Z,15.10
2018-06-24T00:38:07.113Z,15.10
2018-06-24T00:40:37.638Z,15.10
2018-06-24T00:43:08.154Z,15.00
2018-06-24T00:45:38.710Z,15.00
2018-06-24T00:48:09.211Z,15.00
2018-06-24T00:50:39.572Z,15.00
2018-06-24T00:53:10.027Z,15.00
2018-06-24T00:55:40.435Z,14.90
2018-06-24T00:58:10.837Z,14.90
2018-06-24T01:00:41.304Z,15.00
2018-06-24T01:03:11.748Z,14.90
2018-06-24T01:05:42.140Z,14.90
2018-06-24T01:08:12.562Z,14.90
2018-06-24T01:10:42.954Z,14.90
2018-06-24T01:13:13.319Z,14.90
2018-06-24T01:15:43.756Z,14.80
2018-06-24T01:18:14.221Z,14.80
2018-06-24T01:20:44.575Z,14.80
2018-06-24T01:23:15.049Z,14.80
2018-06-24T01:25:45.505Z,14.70
2018-06-24T01:28:15.870Z,14.70
2018-06-24T01:30:46.317Z,14.70
2018-06-24T01:33:16.707Z,14.70
2018-06-24T01:35:47.149Z,14.70
2018-06-24T01:38:17.590Z,14.60
2018-06-24T01:40:48.098Z,14.60
2018-06-24T01:43:18.554Z,14.60
2018-06-24T01:45:48.977Z,14.60
2018-06-24T01:48:19.434Z,14.50
2018-06-24T01:50:49.791Z,14.50
2018-06-24T01:53:20.239Z,14.50
2018-06-24T01:55:50.616Z,14.50
2018-06-24T01:58:21.050Z,14.50
2018-06-24T02:00:51.579Z,14.50
2018-06-24T02:03:22.028Z,14.40
2018-06-24T02:05:52.339Z,14.40
2018-06-24T02:08:22.735Z,14.40
2018-06-24T02:10:53.274Z,14.40
2018-06-24T02:13:23.769Z,14.40
2018-06-24T02:15:54.256Z,14.30
2018-06-24T02:18:24.772Z,14.30
2018-06-24T02:20:55.159Z,14.20
2018-06-24T02:23:25.618Z,14.30
2018-06-24T02:25:56.106Z,14.30
2018-06-24T02:28:26.602Z,14.30
2018-06-24T02:30:57.009Z,14.30
2018-06-24T02:33:27.369Z,14.30
2018-06-24T02:35:58.050Z,14.30
2018-06-24T02:38:31.965Z,14.30
2018-06-24T02:41:02.546Z,14.30
2018-06-24T02:43:33.091Z,14.30
2018-06-24T02:46:03.651Z,14.30
2018-06-24T02:48:34.029Z,14.30
2018-06-24T02:51:04.593Z,14.30
2018-06-24T02:53:35.428Z,14.20
2018-06-24T02:56:06.271Z,14.20
2018-06-24T02:58:36.732Z,14.20
2018-06-24T03:01:07.161Z,14.20
2018-06-24T03:03:37.571Z,14.20
2018-06-24T03:06:08.147Z,14.20
2018-06-24T03:08:38.546Z,14.20
2018-06-24T03:11:08.933Z,14.20
2018-06-24T03:13:39.291Z,14.20
2018-06-24T03:16:09.775Z,14.20
2018-06-24T03:18:40.168Z,14.20
2018-06-24T03:21:10.628Z,14.20
2018-06-24T03:23:41.054Z,14.20
2018-06-24T03:26:11.488Z,14.20
2018-06-24T03:28:41.888Z,14.20
2018-06-24T03:31:12.332Z,14.20
2018-06-24T03:33:42.798Z,14.20
2018-06-24T03:36:13.229Z,14.20
2018-06-24T03:38:43.671Z,14.20
2018-06-24T03:41:14.146Z,14.20
2018-06-24T03:43:44.566Z,14.20
2018-06-24T03:46:15.038Z,14.20
2018-06-24T03:48:45.510Z,14.20
2018-06-24T03:51:16.066Z,14.20
2018-06-24T03:53:46.493Z,14.20
2018-06-24T03:56:16.930Z,14.20
2018-06-24T03:58:47.388Z,14.20
2018-06-24T04:01:17.731Z,14.20
2018-06-24T04:03:48.285Z,14.20
2018-06-24T04:06:18.630Z,14.20
2018-06-24T04:08:48.921Z,14.20
2018-06-24T04:11:19.248Z,14.20
2018-06-24T04:13:49.627Z,14.20
2018-06-24T04:16:19.988Z,14.20
2018-06-24T04:18:50.369Z,14.20
2018-06-24T04:21:20.853Z,14.20
2018-06-24T04:23:51.278Z,14.20
2018-06-24T04:26:21.768Z,14.20
2018-06-24T04:28:52.133Z,14.20
2018-06-24T04:31:22.650Z,14.20
2018-06-24T04:33:53.167Z,14.20
2018-06-24T04:36:23.610Z,14.20
2018-06-24T04:38:54.066Z,14.30
2018-06-24T04:41:24.514Z,14.30
2018-06-24T04:43:54.977Z,14.30
2018-06-24T04:46:26.628Z,14.30
2018-06-24T04:48:57.075Z,14.30
2018-06-24T04:53:57.467Z,14.30
2018-06-24T04:56:27.951Z,14.40
2018-06-24T05:01:28.278Z,14.40
2018-06-24T05:03:58.760Z,14.40
2018-06-24T05:06:29.193Z,14.50
2018-06-24T05:08:59.527Z,14.50
2018-06-24T05:11:29.807Z,14.50
2018-06-24T05:14:00.168Z,14.50
2018-06-24T05:16:30.654Z,14.50
2018-06-24T05:19:01.172Z,14.50
2018-06-24T05:21:31.664Z,14.50
2018-06-24T05:24:02.035Z,14.50
2018-06-24T05:26:32.513Z,14.60
2018-06-24T05:29:02.954Z,14.60
2018-06-24T05:31:33.346Z,14.60
2018-06-24T05:34:03.874Z,14.60
2018-06-24T05:36:34.392Z,14.60
2018-06-24T05:41:36.139Z,14.70
2018-06-24T05:44:06.774Z,14.70
2018-06-24T05:46:37.252Z,14.70
2018-06-24T05:49:07.718Z,14.70
2018-06-24T05:51:38.294Z,14.70
2018-06-24T05:54:08.699Z,14.80
2018-06-24T05:56:39.138Z,14.80
2018-06-24T05:59:09.511Z,14.80
2018-06-24T06:01:40.096Z,14.90
2018-06-24T06:06:40.591Z,14.90
2018-06-24T06:09:12.645Z,14.90
2018-06-24T06:11:43.141Z,14.90
2018-06-24T06:14:13.555Z,14.90
2018-06-24T06:16:44.101Z,15.00
2018-06-24T06:19:14.619Z,15.00
2018-06-24T06:21:45.182Z,15.00
2018-06-24T06:24:15.728Z,15.00
2018-06-24T06:26:46.224Z,15.10
2018-06-24T06:29:16.735Z,15.10
2018-06-24T06:31:47.247Z,15.10
2018-06-24T06:34:17.716Z,15.20
2018-06-24T06:36:48.268Z,15.20
2018-06-24T06:39:18.619Z,15.20
2018-06-24T06:41:49.078Z,15.30
2018-06-24T06:52:28.406Z,15.40
2018-06-24T06:54:58.719Z,15.40
2018-06-24T06:57:29.049Z,15.40
2018-06-24T06:59:59.313Z,15.40
2018-06-24T07:02:29.549Z,15.50
2018-06-24T07:04:59.764Z,15.50
2018-06-24T07:07:30.035Z,15.50
2018-06-24T07:10:00.280Z,15.60
2018-06-24T07:12:30.544Z,15.60
2018-06-24T07:15:00.828Z,15.60
2018-06-24T07:17:31.087Z,15.60
2018-06-24T07:20:01.310Z,15.60
2018-06-24T07:25:01.995Z,15.70
2018-06-24T07:27:32.435Z,15.70
2018-06-24T07:30:02.999Z,15.70
2018-06-24T07:32:33.401Z,15.70
2018-06-24T07:35:03.791Z,15.80
2018-06-24T07:37:34.260Z,15.80
2018-06-24T07:40:04.777Z,15.80
2018-06-24T07:42:35.235Z,15.80
2018-06-24T07:45:05.824Z,15.80
2018-06-24T07:47:36.399Z,15.80
2018-06-24T07:50:07.053Z,15.80
2018-06-24T07:52:37.547Z,15.90
2018-06-24T07:55:08.296Z,15.90
2018-06-24T07:57:38.839Z,16.00
2018-06-24T08:00:15.737Z,16.00
2018-06-24T08:05:19.043Z,16.10
2018-06-24T08:07:49.473Z,16.10
2018-06-24T08:12:49.879Z,16.20
2018-06-24T08:15:20.286Z,16.30
2018-06-24T08:17:50.728Z,16.30
2018-06-24T08:20:21.160Z,16.30
2018-06-24T08:22:51.729Z,16.40
2018-06-24T08:25:22.265Z,16.40
2018-06-24T08:27:52.678Z,16.40
2018-06-24T08:30:23.195Z,16.40
2018-06-24T08:32:53.651Z,16.40
2018-06-24T08:35:24.711Z,16.50
2018-06-24T08:37:55.244Z,16.50
2018-06-24T08:40:25.813Z,16.50
2018-06-24T08:43:00.305Z,16.50
2018-06-24T08:45:32.519Z,16.50
2018-06-24T08:48:02.951Z,16.50
2018-06-24T08:50:33.291Z,16.60
2018-06-24T08:53:03.985Z,16.60
2018-06-24T08:55:36.802Z,16.50
2018-06-24T08:58:07.674Z,16.50
2018-06-24T09:00:38.261Z,16.50
2018-06-24T09:03:08.737Z,16.50
2018-06-24T09:05:39.171Z,16.60
2018-06-24T09:08:09.580Z,16.70
2018-06-24T09:10:40.032Z,16.70
2018-06-24T09:13:10.385Z,16.80
2018-06-24T09:15:40.912Z,16.80
2018-06-24T09:18:11.199Z,16.80
2018-06-24T09:20:41.509Z,16.90
2018-06-24T09:23:13.111Z,17.00
2018-06-24T09:25:43.436Z,17.00
2018-06-24T09:28:13.638Z,17.10
2018-06-24T09:30:44.684Z,17.20
2018-06-24T09:33:15.090Z,17.20
2018-06-24T09:35:45.510Z,17.30
2018-06-24T09:38:16.128Z,17.30
2018-06-24T09:40:46.692Z,17.40
2018-06-24T09:43:17.189Z,17.40
2018-06-24T09:45:47.669Z,17.40
2018-06-24T09:48:18.117Z,17.40
2018-06-24T09:50:48.567Z,17.50
2018-06-24T09:53:19.095Z,17.50
2018-06-24T09:55:49.575Z,17.50
2018-06-24T09:58:20.094Z,17.60
2018-06-24T10:00:50.567Z,17.60
2018-06-24T10:03:21.076Z,17.70
2018-06-24T10:05:51.606Z,17.80
2018-06-24T10:08:22.050Z,17.80
2018-06-24T10:10:52.475Z,17.80
2018-06-24T10:13:22.908Z,17.90
2018-06-24T10:15:53.470Z,17.90
2018-06-24T10:18:23.859Z,17.90
2018-06-24T10:20:54.409Z,18.00
2018-06-24T10:23:24.858Z,18.00
2018-06-24T10:25:55.210Z,18.10
2018-06-24T10:28:25.541Z,18.10
2018-06-24T10:30:55.898Z,18.10
2018-06-24T10:33:26.521Z,18.10
2018-06-24T10:35:57.229Z,18.10
2018-06-24T10:38:27.725Z,18.10
2018-06-24T10:40:58.368Z,18.20
2018-06-24T10:43:28.878Z,18.20
2018-06-24T10:45:59.428Z,18.30
2018-06-24T10:48:29.868Z,18.30
2018-06-24T10:51:00.388Z,18.30
2018-06-24T10:53:30.775Z,18.30
2018-06-24T10:58:31.511Z,18.40
2018-06-24T11:01:01.917Z,18.50
2018-06-24T11:03:32.296Z,18.50
2018-06-24T11:06:02.714Z,18.50
2018-06-24T11:08:33.248Z,18.50
2018-06-24T11:11:03.668Z,18.60
2018-06-24T11:13:34.162Z,18.50
2018-06-24T11:16:04.649Z,18.50
2018-06-24T11:18:35.002Z,18.40
2018-06-24T11:21:05.416Z,18.40
2018-06-24T11:23:35.897Z,18.40
2018-06-24T11:28:36.435Z,18.30
2018-06-24T11:31:07.459Z,18.30
2018-06-24T11:33:37.926Z,18.30
2018-06-24T11:36:08.394Z,18.30
2018-06-24T11:38:38.918Z,18.30
2018-06-24T11:41:09.693Z,18.40
2018-06-24T11:43:40.020Z,18.40
2018-06-24T11:46:10.496Z,18.40
2018-06-24T11:48:40.990Z,18.40
2018-06-24T11:51:11.415Z,18.50
2018-06-24T11:53:41.968Z,18.50
2018-06-24T11:56:12.361Z,18.50
2018-06-24T11:58:42.805Z,18.50
2018-06-24T12:01:13.213Z,18.50
2018-06-24T12:03:46.839Z,18.50
2018-06-24T12:06:17.319Z,18.40
2018-06-24T12:08:47.737Z,18.40
2018-06-24T12:11:18.331Z,18.40
2018-06-24T12:13:48.725Z,18.40
2018-06-24T12:16:19.074Z,18.40
2018-06-24T12:18:49.517Z,18.40
2018-06-24T12:21:20.013Z,18.30
2018-06-24T12:23:50.410Z,18.30
2018-06-24T12:26:20.746Z,18.30
2018-06-24T12:28:51.129Z,18.40
2018-06-24T12:31:21.550Z,18.40
2018-06-24T12:33:51.941Z,18.50
2018-06-24T12:36:37.880Z,18.40
2018-06-24T12:39:15.020Z,18.40
2018-06-24T12:41:45.267Z,18.40
2018-06-24T12:44:16.213Z,18.40
2018-06-24T12:46:46.729Z,18.40
2018-06-24T12:49:17.071Z,18.40
2018-06-24T12:51:47.404Z,18.40
2018-06-24T12:54:17.688Z,18.40
2018-06-24T12:56:48.129Z,18.40
2018-06-24T12:59:21.038Z,18.40
2018-06-24T13:01:51.224Z,18.40
2018-06-24T13:04:21.605Z,18.40
2018-06-24T13:06:52.025Z,18.40
2018-06-24T13:09:22.512Z,18.40
2018-06-24T13:11:52.974Z,18.40
2018-06-24T13:14:23.377Z,18.40
2018-06-24T13:16:56.920Z,18.40
2018-06-24T13:19:27.310Z,18.40
2018-06-24T13:21:57.731Z,18.50
2018-06-24T13:24:28.264Z,18.50
2018-06-24T13:27:01.820Z,18.50
2018-06-24T13:29:33.164Z,18.50
2018-06-24T13:32:04.250Z,18.50
2018-06-24T13:34:35.409Z,18.50
2018-06-24T13:37:06.948Z,18.40
2018-06-24T13:39:37.555Z,18.40
2018-06-24T13:42:07.972Z,18.40
2018-06-24T13:44:38.580Z,18.40
2018-06-24T13:47:09.071Z,18.30
2018-06-24T13:49:45.232Z,18.30
2018-06-24T13:52:15.767Z,18.30
2018-06-24T13:54:46.309Z,18.30
2018-06-24T13:57:16.772Z,18.30
2018-06-24T13:59:58.842Z,18.30
2018-06-24T14:02:29.327Z,18.30
2018-06-24T14:04:59.845Z,18.30
2018-06-24T14:07:36.943Z,18.30
2018-06-24T14:10:07.459Z,18.20
2018-06-24T14:12:38.128Z,18.20
2018-06-24T14:15:08.550Z,18.20
2018-06-24T14:17:39.002Z,18.20
2018-06-24T14:20:09.535Z,18.20
2018-06-24T14:22:40.116Z,18.20
2018-06-24T14:25:10.669Z,18.20
2018-06-24T14:27:42.011Z,18.20
2018-06-24T14:30:12.499Z,18.20
2018-06-24T14:32:42.845Z,18.10
2018-06-24T14:35:13.189Z,18.10
2018-06-24T14:37:43.599Z,18.00
2018-06-24T14:40:13.928Z,18.00
2018-06-24T14:42:44.480Z,18.00
2018-06-24T14:45:14.921Z,18.00
2018-06-24T14:47:45.278Z,17.90
2018-06-24T14:50:15.663Z,17.90
2018-06-24T14:52:46.288Z,18.00
2018-06-24T14:55:16.781Z,17.90
2018-06-24T14:57:47.289Z,17.90
2018-06-24T15:00:17.845Z,17.90
2018-06-24T15:02:48.327Z,17.90
2018-06-24T15:05:18.777Z,17.90
2018-06-24T15:07:49.387Z,17.90
2018-06-24T15:10:19.815Z,17.90
2018-06-24T15:12:50.268Z,17.90
2018-06-24T15:15:20.614Z,17.90
2018-06-24T15:20:21.265Z,18.00
2018-06-24T15:22:51.718Z,18.00
2018-06-24T15:25:22.114Z,18.00
2018-06-24T15:30:22.239Z,18.00
2018-06-24T15:32:52.645Z,18.00
2018-06-24T15:35:23.110Z,18.00
2018-06-24T15:37:53.539Z,18.00
2018-06-24T15:40:23.906Z,18.00
2018-06-24T15:42:54.259Z,17.90
2018-06-24T15:45:24.452Z,17.90
2018-06-24T15:47:54.698Z,17.80
2018-06-24T15:50:24.992Z,17.80
2018-06-24T15:52:55.313Z,17.80
2018-06-24T15:55:44.716Z,17.70
2018-06-24T15:58:15.194Z,17.70
2018-06-24T16:00:45.868Z,17.60
2018-06-24T16:03:16.436Z,17.60
2018-06-24T16:05:47.547Z,17.60
2018-06-24T16:08:17.893Z,17.60
2018-06-24T16:10:48.209Z,17.60
2018-06-24T16:13:18.638Z,17.60
2018-06-24T16:15:49.094Z,17.60
2018-06-24T16:18:19.669Z,17.60
2018-06-24T16:20:50.354Z,17.60
2018-06-24T16:23:20.803Z,17.60
2018-06-24T16:25:51.436Z,17.60
2018-06-24T16:28:21.837Z,17.60
2018-06-24T16:30:52.332Z,17.60
2018-06-24T16:33:22.831Z,17.50
2018-06-24T16:35:53.349Z,17.60
2018-06-24T16:38:23.794Z,17.60
2018-06-24T16:40:54.389Z,17.60
2018-06-24T16:43:24.879Z,17.50
2018-06-24T16:45:55.369Z,17.50
2018-06-24T16:48:25.831Z,17.50
2018-06-24T16:50:56.310Z,17.50
2018-06-24T16:53:26.871Z,17.50
2018-06-24T16:55:57.265Z,17.50
2018-06-24T17:00:57.568Z,17.50
2018-06-24T17:03:28.029Z,17.50
2018-06-24T17:06:00.069Z,17.40
2018-06-24T17:08:31.860Z,17.30
2018-06-24T17:11:04.229Z,17.30
2018-06-24T17:13:37.880Z,17.30
2018-06-24T17:16:08.396Z,17.30
2018-06-24T17:18:38.928Z,17.20
2018-06-24T17:21:09.330Z,17.20
2018-06-24T17:23:39.763Z,17.20
2018-06-24T17:26:10.295Z,17.20
2018-06-24T17:28:41.068Z,17.20
2018-06-24T17:31:11.990Z,17.10
2018-06-24T17:33:42.357Z,17.10
2018-06-24T17:36:12.805Z,17.10
2018-06-24T17:38:44.802Z,17.10
2018-06-24T17:41:15.325Z,17.10
2018-06-24T17:43:45.656Z,17.10
2018-06-24T17:46:16.040Z,17.10
2018-06-24T17:48:46.452Z,17.00
2018-06-24T17:51:16.900Z,17.00
2018-06-24T17:56:17.329Z,17.00
2018-06-24T17:58:47.795Z,17.00
2018-06-24T18:01:18.168Z,17.00
2018-06-24T18:03:48.496Z,17.00
2018-06-24T18:06:18.892Z,17.00
2018-06-24T18:08:49.210Z,17.00
2018-06-24T18:11:19.635Z,17.00
2018-06-24T18:13:50.034Z,17.00
2018-06-24T18:16:20.487Z,17.00
2018-06-24T18:18:50.846Z,16.90
2018-06-24T18:21:21.298Z,16.90
2018-06-24T18:23:51.744Z,16.90
2018-06-24T18:26:22.215Z,16.90
2018-06-24T18:28:52.600Z,16.90
2018-06-24T18:31:22.929Z,16.90
2018-06-24T18:33:53.267Z,16.90
2018-06-24T18:36:23.624Z,16.90
2018-06-24T18:38:53.951Z,16.90
2018-06-24T18:41:24.400Z,16.90
2018-06-24T18:43:54.794Z,16.90
2018-06-24T18:46:25.115Z,16.80
2018-06-24T18:48:55.689Z,16.80
2018-06-24T18:51:26.118Z,16.80
2018-06-24T18:53:56.516Z,16.80
2018-06-24T18:56:26.851Z,16.80
2018-06-24T18:58:57.257Z,16.80
2018-06-24T19:01:27.596Z,16.80
2018-06-24T19:03:57.998Z,16.80
2018-06-24T19:06:28.449Z,16.80
2018-06-24T19:08:58.831Z,16.80
2018-06-24T19:11:29.239Z,16.80
2018-06-24T19:13:59.574Z,16.80
2018-06-24T19:16:29.955Z,16.80
2018-06-24T19:19:00.295Z,16.80
2018-06-24T19:21:30.634Z,16.80
2018-06-24T19:26:30.874Z,16.80
2018-06-24T19:29:01.268Z,16.70
2018-06-24T19:31:31.582Z,16.70
2018-06-24T19:34:01.905Z,16.70
2018-06-24T19:36:32.255Z,16.70
2018-06-24T19:39:02.725Z,16.70
2018-06-24T19:41:33.303Z,16.60
2018-06-24T19:44:03.898Z,16.60
2018-06-24T19:46:34.323Z,16.60
2018-06-24T19:49:04.775Z,16.60
2018-06-24T19:51:35.236Z,16.60
2018-06-24T19:54:05.750Z,16.50
2018-06-24T19:56:36.079Z,16.50
2018-06-24T19:59:06.866Z,16.50
2018-06-24T20:01:37.281Z,16.50
2018-06-24T20:04:08.475Z,16.40
2018-06-24T20:09:11.353Z,16.40
2018-06-24T20:11:41.858Z,16.40
2018-06-24T20:16:42.294Z,16.40
2018-06-24T20:19:12.710Z,16.40
2018-06-24T20:24:13.192Z,16.40
2018-06-24T20:26:43.591Z,16.40
2018-06-24T20:29:14.005Z,16.30
2018-06-24T20:31:44.435Z,16.30
2018-06-24T20:34:14.812Z,16.30
2018-06-24T20:36:45.194Z,16.30
2018-06-24T20:41:58.476Z,16.30
2018-06-24T20:44:28.970Z,16.30
2018-06-24T20:46:59.494Z,16.30
2018-06-24T20:49:29.841Z,16.20
2018-06-24T20:52:00.250Z,16.20
2018-06-24T20:57:00.526Z,16.20
2018-06-24T20:59:30.891Z,16.20
2018-06-24T21:02:01.361Z,16.20
2018-06-24T21:04:31.917Z,16.20
2018-06-24T21:07:02.255Z,16.20
2018-06-24T21:09:32.581Z,16.10
2018-06-24T21:12:03.017Z,16.10
2018-06-24T21:14:33.499Z,16.10
2018-06-24T21:17:03.911Z,16.10
2018-06-24T21:19:34.319Z,16.00
2018-06-24T21:22:04.674Z,16.00
2018-06-24T21:24:41.462Z,16.00
2018-06-24T21:27:12.567Z,16.00
2018-06-24T21:29:43.007Z,16.00
2018-06-24T21:32:13.364Z,16.00
2018-06-24T21:34:43.790Z,16.00
2018-06-24T21:37:14.156Z,16.00
2018-06-24T21:39:44.480Z,16.00
2018-06-24T21:42:14.749Z,15.90
2018-06-24T21:44:45.094Z,15.90
2018-06-24T21:47:15.453Z,15.90
2018-06-24T21:49:45.831Z,15.90
2018-06-24T21:52:16.203Z,15.90
2018-06-24T21:54:46.637Z,15.90
2018-06-24T21:57:16.976Z,15.90
2018-06-24T21:59:47.309Z,15.80
2018-06-24T22:02:17.659Z,15.80
2018-06-24T22:04:48.082Z,15.80
2018-06-24T22:07:18.519Z,15.80
2018-06-24T22:09:48.907Z,15.80
2018-06-24T22:12:19.234Z,15.70
2018-06-24T22:14:49.572Z,15.70
2018-06-24T22:17:19.895Z,15.70
2018-06-24T22:19:50.245Z,15.70
2018-06-24T22:22:20.585Z,15.70
2018-06-24T22:24:51.007Z,15.60
2018-06-24T22:27:21.409Z,15.60
2018-06-24T22:29:51.806Z,15.60
2018-06-24T22:32:22.269Z,15.60
2018-06-24T22:34:52.734Z,15.60
2018-06-24T22:37:23.159Z,15.60
2018-06-24T22:39:53.584Z,15.60
2018-06-24T22:42:23.975Z,15.60
2018-06-24T22:44:54.431Z,15.60
2018-06-24T22:47:24.940Z,15.60
2018-06-24T22:49:58.278Z,15.60
2018-06-24T22:52:28.786Z,15.60
2018-06-24T22:54:59.105Z,15.60
2018-06-24T22:57:29.500Z,15.60
2018-06-24T23:00:19.151Z,15.60
2018-06-24T23:02:49.607Z,15.60
2018-06-24T23:05:19.876Z,15.50
2018-06-24T23:07:50.255Z,15.50
2018-06-24T23:10:20.666Z,15.50
2018-06-24T23:12:50.957Z,15.50
2018-06-24T23:15:21.310Z,15.50
2018-06-24T23:17:51.621Z,15.50
2018-06-24T23:20:21.930Z,15.50
2018-06-24T23:22:52.201Z,15.60
2018-06-24T23:25:22.508Z,15.50
2018-06-24T23:27:52.820Z,15.50
2018-06-24T23:30:23.172Z,15.50
2018-06-24T23:32:53.487Z,15.50
2018-06-24T23:35:23.813Z,15.50
2018-06-24T23:37:54.120Z,15.50
2018-06-24T23:40:24.442Z,15.50
2018-06-24T23:42:54.768Z,15.50
2018-06-24T23:45:25.072Z,15.50
2018-06-24T23:47:55.384Z,15.40
2018-06-24T23:50:25.702Z,15.40
2018-06-24T23:52:56.008Z,15.40
2018-06-24T23:55:26.338Z,15.40
2018-06-24T23:57:56.608Z,15.40
